createdAt,value
2023-06-19T00:00:23.564Z,22.51
2023-06-19T00:02:52.012Z,22.55
2023-06-19T00:05:20.508Z,22.55
2023-06-19T00:07:50.070Z,22.45
2023-06-19T00:10:18.296Z,22.48
2023-06-19T00:12:46.629Z,22.53
2023-06-19T00:15:14.919Z,22.53
2023-06-19T00:17:43.451Z,22.55
2023-06-19T00:20:12.140Z,22.52
2023-06-19T00:22:40.386Z,22.56
2023-06-19T00:25:12.031Z,22.48
2023-06-19T00:27:40.195Z,22.42
2023-06-19T00:30:09.490Z,22.28
2023-06-19T00:32:47.347Z,22.22
2023-06-19T00:35:17.071Z,22.07
2023-06-19T00:37:46.717Z,22.10
2023-06-19T00:40:26.738Z,22.14
2023-06-19T00:42:54.971Z,22.08
2023-06-19T00:45:24.877Z,22.04
2023-06-19T00:47:53.612Z,22.16
2023-06-19T00:50:22.779Z,22.09
2023-06-19T00:52:51.379Z,21.93
2023-06-19T00:55:21.210Z,21.93
2023-06-19T00:57:51.654Z,21.86
2023-06-19T01:00:19.854Z,21.79
2023-06-19T01:02:49.165Z,21.82
2023-06-19T01:05:18.941Z,21.94
2023-06-19T01:07:55.129Z,21.96
2023-06-19T01:10:29.464Z,21.96
2023-06-19T01:13:01.144Z,21.96
2023-06-19T01:15:29.308Z,21.84
2023-06-19T01:17:59.888Z,21.79
2023-06-19T01:20:29.926Z,21.89
2023-06-19T01:22:59.472Z,21.96
2023-06-19T01:25:28.298Z,21.88
2023-06-19T01:27:56.658Z,21.77
2023-06-19T01:30:25.353Z,21.80
2023-06-19T01:33:00.837Z,21.79
2023-06-19T01:35:31.707Z,21.75
2023-06-19T01:38:03.065Z,21.57
2023-06-19T01:40:35.870Z,21.54
2023-06-19T01:43:05.621Z,21.50
2023-06-19T01:45:34.381Z,21.58
2023-06-19T01:48:02.768Z,21.56
2023-06-19T01:50:30.995Z,21.60
2023-06-19T01:53:01.060Z,21.65
2023-06-19T01:55:29.302Z,21.55
2023-06-19T01:57:59.726Z,21.50
2023-06-19T02:00:28.060Z,21.45
2023-06-19T02:03:00.094Z,21.43
2023-06-19T02:05:28.404Z,21.49
2023-06-19T02:07:56.557Z,21.46
2023-06-19T02:10:26.342Z,21.44
2023-06-19T02:12:54.617Z,21.54
2023-06-19T02:15:22.962Z,21.55
2023-06-19T02:17:56.173Z,21.49
2023-06-19T02:20:25.537Z,21.61
2023-06-19T02:22:54.219Z,21.70
2023-06-19T02:25:22.424Z,21.67
2023-06-19T02:27:52.054Z,21.56
2023-06-19T02:30:20.306Z,21.45
2023-06-19T02:32:48.491Z,21.31
2023-06-19T02:35:17.023Z,21.29
2023-06-19T02:37:47.635Z,21.31
2023-06-19T02:40:16.347Z,21.32
2023-06-19T02:42:44.565Z,21.24
2023-06-19T02:45:14.254Z,21.24
2023-06-19T02:47:43.281Z,21.23
2023-06-19T02:50:11.896Z,21.25
2023-06-19T02:52:40.074Z,21.22
2023-06-19T02:55:09.195Z,21.32
2023-06-19T02:57:39.065Z,21.28
2023-06-19T03:00:10.563Z,21.19
2023-06-19T03:02:42.972Z,21.26
2023-06-19T03:05:12.050Z,21.23
2023-06-19T03:07:40.214Z,21.36
2023-06-19T03:10:08.873Z,21.38
2023-06-19T03:12:37.289Z,21.37
2023-06-19T03:15:06.329Z,21.33
2023-06-19T03:17:37.085Z,21.39
2023-06-19T03:20:13.048Z,21.35
2023-06-19T03:22:45.815Z,21.27
2023-06-19T03:25:16.611Z,21.19
2023-06-19T03:27:45.106Z,21.16
2023-06-19T03:30:14.145Z,21.25
2023-06-19T03:32:44.264Z,21.35
2023-06-19T03:35:22.377Z,21.32
2023-06-19T03:37:50.691Z,21.11
2023-06-19T03:40:20.267Z,21.16
2023-06-19T03:42:50.725Z,21.13
2023-06-19T03:45:18.996Z,21.09
2023-06-19T03:47:47.685Z,21.10
2023-06-19T03:50:21.655Z,21.12
2023-06-19T03:52:52.482Z,21.11
2023-06-19T03:55:20.774Z,20.99
2023-06-19T03:57:49.041Z,21.10
2023-06-19T04:00:19.425Z,21.02
2023-06-19T04:02:51.181Z,21.06
2023-06-19T04:05:21.322Z,21.08
2023-06-19T04:07:49.619Z,21.06
2023-06-19T04:10:19.467Z,20.95
2023-06-19T04:12:50.095Z,20.93
2023-06-19T04:15:18.481Z,20.92
2023-06-19T04:17:46.759Z,20.94
2023-06-19T04:20:15.393Z,21.06
2023-06-19T04:22:43.711Z,21.06
2023-06-19T04:25:12.617Z,21.07
2023-06-19T04:27:42.236Z,21.06
2023-06-19T04:30:11.035Z,21.17
2023-06-19T04:32:41.882Z,21.18
2023-06-19T04:35:11.559Z,21.19
2023-06-19T04:37:39.875Z,21.08
2023-06-19T04:40:10.044Z,21.17
2023-06-19T04:42:39.845Z,21.28
2023-06-19T04:45:10.737Z,21.23
2023-06-19T04:47:52.371Z,21.26
2023-06-19T04:50:23.484Z,21.27
2023-06-19T04:52:53.048Z,21.27
2023-06-19T04:55:21.485Z,21.29
2023-06-19T04:57:49.893Z,21.32
2023-06-19T05:00:23.523Z,21.50
2023-06-19T05:02:52.325Z,21.40
2023-06-19T05:05:22.532Z,21.36
2023-06-19T05:07:52.603Z,21.36
2023-06-19T05:10:21.462Z,21.53
2023-06-19T05:12:49.824Z,21.43
2023-06-19T05:15:19.703Z,21.61
2023-06-19T05:17:48.076Z,21.59
2023-06-19T05:20:16.529Z,21.64
2023-06-19T05:22:45.360Z,21.67
2023-06-19T05:25:13.701Z,21.64
2023-06-19T05:27:42.116Z,21.75
2023-06-19T05:30:11.397Z,21.97
2023-06-19T05:32:41.335Z,22.19
2023-06-19T05:35:10.346Z,22.34
2023-06-19T05:37:39.931Z,22.47
2023-06-19T05:40:09.976Z,22.77
2023-06-19T05:42:38.813Z,23.02
2023-06-19T05:45:07.834Z,23.13
2023-06-19T05:47:36.119Z,23.23
2023-06-19T05:50:06.547Z,23.37
2023-06-19T05:52:34.835Z,23.57
2023-06-19T05:55:03.151Z,23.67
2023-06-19T05:57:31.397Z,23.86
2023-06-19T05:59:59.605Z,23.83
2023-06-19T06:02:29.727Z,23.78
2023-06-19T06:04:58.412Z,23.84
2023-06-19T06:07:29.796Z,23.86
2023-06-19T06:09:58.149Z,24.02
2023-06-19T06:12:26.421Z,24.17
2023-06-19T06:14:54.878Z,24.32
2023-06-19T06:17:23.342Z,24.45
2023-06-19T06:19:51.565Z,24.37
2023-06-19T06:22:19.865Z,24.47
2023-06-19T06:24:49.503Z,24.63
2023-06-19T06:27:17.950Z,24.71
2023-06-19T06:29:46.219Z,24.47
2023-06-19T06:32:14.372Z,24.43
2023-06-19T06:34:42.532Z,24.36
2023-06-19T06:37:10.799Z,24.30
2023-06-19T06:39:39.746Z,24.37
2023-06-19T06:42:09.414Z,24.38
2023-06-19T06:44:37.759Z,24.29
2023-06-19T06:47:06.022Z,24.18
2023-06-19T06:49:34.184Z,24.44
2023-06-19T06:52:02.461Z,24.60
2023-06-19T06:54:30.668Z,24.80
2023-06-19T06:56:59.534Z,24.85
2023-06-19T06:59:29.653Z,24.88
2023-06-19T07:01:58.400Z,24.89
2023-06-19T07:04:27.474Z,25.04
2023-06-19T07:06:55.874Z,25.15
2023-06-19T07:09:24.028Z,25.30
2023-06-19T07:11:53.919Z,25.46
2023-06-19T07:14:22.853Z,25.29
2023-06-19T07:16:52.792Z,25.23
2023-06-19T07:19:21.194Z,25.38
2023-06-19T07:21:49.743Z,25.30
2023-06-19T07:24:18.109Z,25.16
2023-06-19T07:26:48.265Z,25.46
2023-06-19T07:29:16.771Z,25.42
2023-06-19T07:31:45.089Z,25.52
2023-06-19T07:34:15.948Z,25.30
2023-06-19T07:36:44.830Z,25.30
2023-06-19T07:39:13.117Z,25.30
2023-06-19T07:41:41.492Z,25.38
2023-06-19T07:44:09.710Z,25.19
2023-06-19T07:46:38.162Z,24.78
2023-06-19T07:49:06.481Z,24.76
2023-06-19T07:51:36.092Z,24.86
2023-06-19T07:54:04.700Z,24.90
2023-06-19T07:56:33.333Z,24.77
2023-06-19T07:59:02.379Z,24.69
2023-06-19T08:01:32.075Z,24.57
2023-06-19T08:04:01.283Z,24.33
2023-06-19T08:06:29.522Z,24.40
2023-06-19T08:08:59.151Z,24.42
2023-06-19T08:11:28.127Z,24.52
2023-06-19T08:13:56.579Z,25.04
2023-06-19T08:16:26.673Z,25.58
2023-06-19T08:18:54.910Z,25.17
2023-06-19T08:21:23.098Z,24.92
2023-06-19T08:23:51.313Z,24.60
2023-06-19T08:26:21.451Z,24.45
2023-06-19T08:28:50.481Z,24.40
2023-06-19T08:31:18.907Z,24.34
2023-06-19T08:33:52.254Z,24.29
2023-06-19T08:36:22.888Z,24.49
2023-06-19T08:38:53.521Z,24.52
2023-06-19T08:41:23.124Z,24.75
2023-06-19T08:43:51.347Z,24.64
2023-06-19T08:46:20.753Z,24.63
2023-06-19T08:48:52.387Z,24.74
2023-06-19T08:51:20.630Z,24.89
2023-06-19T08:53:52.380Z,24.91
2023-06-19T08:56:22.143Z,25.19
2023-06-19T08:58:50.351Z,25.32
2023-06-19T09:01:20.478Z,25.33
2023-06-19T09:06:21.323Z,25.29
2023-06-19T09:09:00.292Z,25.32
2023-06-19T09:11:30.582Z,25.24
2023-06-19T09:13:59.898Z,24.94
2023-06-19T09:16:40.270Z,24.89
2023-06-19T09:19:08.811Z,24.83
2023-06-19T09:21:39.639Z,24.84
2023-06-19T09:24:09.363Z,24.82
2023-06-19T09:26:39.867Z,24.82
2023-06-19T09:29:19.507Z,24.77
2023-06-19T09:31:49.413Z,24.84
2023-06-19T09:34:17.670Z,24.87
2023-06-19T09:36:48.078Z,24.84
2023-06-19T09:39:18.175Z,24.47
2023-06-19T09:41:51.448Z,24.38
2023-06-19T09:44:23.970Z,24.55
2023-06-19T09:46:54.762Z,24.46
2023-06-19T09:49:27.439Z,24.55
2023-06-19T09:51:56.725Z,24.61
2023-06-19T09:54:26.886Z,24.54
2023-06-19T09:56:59.674Z,24.43
2023-06-19T09:59:28.339Z,24.70
2023-06-19T10:01:56.840Z,24.92
2023-06-19T10:04:25.280Z,25.12
2023-06-19T10:06:54.020Z,24.91
2023-06-19T10:09:23.609Z,25.11
2023-06-19T10:11:53.646Z,25.21
2023-06-19T10:14:25.862Z,25.29
2023-06-19T10:16:54.378Z,24.99
2023-06-19T10:19:25.016Z,24.91
2023-06-19T10:21:55.116Z,24.66
2023-06-19T10:24:26.144Z,24.44
2023-06-19T10:26:59.526Z,24.43
2023-06-19T10:29:40.902Z,24.40
2023-06-19T10:32:10.640Z,24.34
2023-06-19T10:34:38.899Z,24.35
2023-06-19T10:37:07.276Z,24.49
2023-06-19T10:39:35.459Z,24.50
2023-06-19T10:42:08.480Z,24.48
2023-06-19T10:44:39.050Z,24.66
2023-06-19T10:47:08.483Z,24.82
2023-06-19T10:49:37.740Z,24.77
2023-06-19T10:52:06.867Z,24.69
2023-06-19T10:54:35.123Z,24.66
2023-06-19T10:57:06.385Z,24.68
2023-06-19T10:59:37.202Z,24.71
2023-06-19T11:02:06.948Z,24.62
2023-06-19T11:04:40.431Z,24.57
2023-06-19T11:07:10.251Z,24.53
2023-06-19T11:09:38.381Z,24.55
2023-06-19T11:12:09.098Z,24.72
2023-06-19T11:14:41.085Z,25.04
2023-06-19T11:17:09.511Z,25.05
2023-06-19T11:19:39.965Z,25.05
2023-06-19T11:22:09.030Z,25.37
2023-06-19T11:24:37.476Z,25.51
2023-06-19T11:27:06.483Z,25.42
2023-06-19T11:29:38.270Z,25.45
2023-06-19T11:32:08.561Z,25.53
2023-06-19T11:34:40.772Z,25.10
2023-06-19T11:37:15.325Z,25.14
2023-06-19T11:39:46.198Z,24.95
2023-06-19T11:42:15.508Z,24.97
2023-06-19T11:44:58.335Z,25.19
2023-06-19T11:47:26.738Z,25.33
2023-06-19T11:49:56.280Z,25.39
2023-06-19T11:52:24.747Z,25.42
2023-06-19T11:54:52.905Z,25.56
2023-06-19T11:57:21.128Z,25.66
2023-06-19T11:59:49.374Z,25.87
2023-06-19T12:02:19.112Z,25.90
2023-06-19T12:04:47.618Z,25.71
2023-06-19T12:07:16.721Z,25.54
2023-06-19T12:09:45.297Z,25.54
2023-06-19T12:12:13.519Z,25.50
2023-06-19T12:14:41.711Z,25.55
2023-06-19T12:17:09.915Z,25.67
2023-06-19T12:19:39.580Z,25.77
2023-06-19T12:22:07.971Z,25.92
2023-06-19T12:24:36.240Z,25.81
2023-06-19T12:27:04.848Z,25.79
2023-06-19T12:29:33.066Z,26.07
2023-06-19T12:32:03.877Z,26.14
2023-06-19T12:34:32.696Z,26.08
2023-06-19T12:37:02.237Z,26.15
2023-06-19T12:39:30.590Z,26.11
2023-06-19T12:41:58.772Z,26.35
2023-06-19T12:44:27.237Z,26.49
2023-06-19T12:46:55.626Z,26.07
2023-06-19T12:49:23.845Z,25.98
2023-06-19T12:51:53.192Z,25.98
2023-06-19T12:54:22.948Z,26.05
2023-06-19T12:56:51.860Z,26.09
2023-06-19T12:59:20.330Z,26.40
2023-06-19T13:01:48.646Z,26.55
2023-06-19T13:04:17.143Z,26.91
2023-06-19T13:06:45.643Z,27.09
2023-06-19T13:09:13.855Z,26.99
2023-06-19T13:11:43.395Z,26.62
2023-06-19T13:14:11.612Z,26.35
2023-06-19T13:19:11.063Z,26.65
2023-06-19T13:21:39.391Z,27.16
2023-06-19T13:24:07.840Z,26.99
2023-06-19T13:26:36.225Z,26.85
2023-06-19T13:29:06.028Z,26.76
2023-06-19T13:31:34.776Z,26.69
2023-06-19T13:34:03.047Z,27.11
2023-06-19T13:36:31.322Z,27.42
2023-06-19T13:38:59.544Z,27.09
2023-06-19T13:41:28.112Z,27.05
2023-06-19T13:43:56.500Z,26.97
2023-06-19T13:46:26.373Z,27.20
2023-06-19T13:48:55.121Z,27.12
2023-06-19T13:51:24.567Z,26.87
2023-06-19T13:53:53.497Z,26.71
2023-06-19T13:56:21.828Z,26.64
2023-06-19T13:58:50.049Z,26.70
2023-06-19T14:01:18.509Z,26.83
2023-06-19T14:03:48.285Z,26.90
2023-06-19T14:06:16.525Z,27.04
2023-06-19T14:08:44.758Z,26.94
2023-06-19T14:11:12.922Z,26.90
2023-06-19T14:13:41.178Z,26.92
2023-06-19T14:16:09.530Z,26.62
2023-06-19T14:18:38.858Z,26.79
2023-06-19T14:21:08.446Z,26.91
2023-06-19T14:23:41.328Z,27.14
2023-06-19T14:26:09.822Z,26.96
2023-06-19T14:28:40.292Z,26.76
2023-06-19T14:31:08.727Z,26.99
2023-06-19T14:33:38.272Z,27.27
2023-06-19T14:36:08.432Z,27.43
2023-06-19T14:38:36.938Z,27.50
2023-06-19T14:41:05.652Z,27.59
2023-06-19T14:43:35.664Z,27.58
2023-06-19T14:46:05.237Z,27.70
2023-06-19T14:48:33.507Z,27.51
2023-06-19T14:51:05.702Z,27.66
2023-06-19T14:53:35.316Z,27.66
2023-06-19T14:56:03.628Z,27.67
2023-06-19T14:58:32.309Z,27.67
2023-06-19T15:01:00.534Z,27.96
2023-06-19T15:03:28.840Z,28.14
2023-06-19T15:05:57.110Z,28.33
2023-06-19T15:08:25.572Z,28.20
2023-06-19T15:10:55.364Z,28.32
2023-06-19T15:13:23.653Z,28.40
2023-06-19T15:15:52.920Z,28.26
2023-06-19T15:18:21.419Z,28.02
2023-06-19T15:20:49.709Z,27.76
2023-06-19T15:23:18.107Z,27.63
2023-06-19T15:25:46.447Z,27.37
2023-06-19T15:28:16.781Z,27.17
2023-06-19T15:30:45.002Z,27.11
2023-06-19T15:33:13.252Z,27.11
2023-06-19T15:35:42.478Z,27.24
2023-06-19T15:38:10.844Z,27.37
2023-06-19T15:40:39.491Z,27.32
2023-06-19T15:43:08.002Z,27.44
2023-06-19T15:45:37.776Z,27.51
2023-06-19T15:48:07.833Z,27.60
2023-06-19T15:50:36.020Z,27.73
2023-06-19T15:53:04.422Z,27.89
2023-06-19T15:55:32.573Z,27.76
2023-06-19T15:58:00.807Z,27.62
2023-06-19T16:00:29.063Z,27.64
2023-06-19T16:02:58.876Z,27.20
2023-06-19T16:05:27.548Z,26.91
2023-06-19T16:07:55.816Z,26.86
2023-06-19T16:10:24.451Z,27.07
2023-06-19T16:12:53.170Z,27.28
2023-06-19T16:15:28.764Z,27.51
2023-06-19T16:17:58.629Z,27.74
2023-06-19T16:20:27.111Z,27.59
2023-06-19T16:22:55.740Z,27.43
2023-06-19T16:25:24.676Z,27.59
2023-06-19T16:27:53.253Z,27.36
2023-06-19T16:30:21.862Z,27.58
2023-06-19T16:32:50.292Z,27.28
2023-06-19T16:35:23.315Z,27.18
2023-06-19T16:37:54.498Z,26.87
2023-06-19T16:40:25.075Z,27.05
2023-06-19T16:42:53.853Z,27.19
2023-06-19T16:45:24.701Z,27.23
2023-06-19T16:47:52.973Z,27.33
2023-06-19T16:50:23.051Z,27.43
2023-06-19T16:52:51.527Z,27.47
2023-06-19T16:55:23.207Z,27.59
2023-06-19T16:57:51.395Z,27.56
2023-06-19T17:00:20.525Z,27.60
2023-06-19T17:02:49.722Z,27.31
2023-06-19T17:05:18.735Z,27.18
2023-06-19T17:07:48.443Z,27.24
2023-06-19T17:10:17.185Z,27.33
2023-06-19T17:12:45.622Z,27.20
2023-06-19T17:15:13.778Z,27.27
2023-06-19T17:17:42.136Z,27.21
2023-06-19T17:20:13.288Z,27.19
2023-06-19T17:22:41.760Z,27.13
2023-06-19T17:25:11.640Z,26.76
2023-06-19T17:27:39.882Z,26.63
2023-06-19T17:30:10.433Z,26.40
2023-06-19T17:32:38.842Z,26.62
2023-06-19T17:35:10.152Z,26.88
2023-06-19T17:37:38.678Z,27.10
2023-06-19T17:40:08.971Z,27.25
2023-06-19T17:42:39.281Z,27.34
2023-06-19T17:45:08.643Z,27.30
2023-06-19T17:47:37.092Z,27.21
2023-06-19T17:50:06.281Z,27.24
2023-06-19T17:52:34.799Z,27.17
2023-06-19T17:55:03.352Z,27.12
2023-06-19T17:57:32.158Z,27.16
2023-06-19T18:00:05.096Z,27.23
2023-06-19T18:02:40.864Z,27.31
2023-06-19T18:05:09.575Z,27.30
2023-06-19T18:07:38.060Z,27.11
2023-06-19T18:10:07.582Z,27.16
2023-06-19T18:12:36.872Z,26.98
2023-06-19T18:15:07.429Z,26.98
2023-06-19T18:17:38.136Z,26.88
2023-06-19T18:20:07.884Z,26.77
2023-06-19T18:22:37.098Z,26.77
2023-06-19T18:25:06.073Z,26.72
2023-06-19T18:27:34.434Z,26.71
2023-06-19T18:30:04.781Z,26.66
2023-06-19T18:32:35.096Z,26.66
2023-06-19T18:35:03.917Z,26.56
2023-06-19T18:37:32.188Z,26.53
2023-06-19T18:40:00.849Z,26.51
2023-06-19T18:42:30.895Z,26.44
2023-06-19T18:44:59.911Z,26.35
2023-06-19T18:47:28.810Z,26.24
2023-06-19T18:49:59.205Z,26.11
2023-06-19T18:52:27.975Z,25.99
2023-06-19T18:54:56.616Z,25.91
2023-06-19T18:57:29.197Z,25.83
2023-06-19T18:59:59.452Z,25.78
2023-06-19T19:02:28.392Z,25.73
2023-06-19T19:04:59.028Z,25.59
2023-06-19T19:07:28.025Z,25.33
2023-06-19T19:09:56.673Z,25.17
2023-06-19T19:12:25.068Z,25.04
2023-06-19T19:14:53.575Z,24.92
2023-06-19T19:17:22.270Z,24.85
2023-06-19T19:19:50.666Z,24.73
2023-06-19T19:22:20.572Z,24.60
2023-06-19T19:24:49.282Z,24.41
2023-06-19T19:27:18.376Z,24.31
2023-06-19T19:29:46.733Z,24.20
2023-06-19T19:32:15.150Z,24.03
2023-06-19T19:34:43.420Z,23.89
2023-06-19T19:37:11.613Z,23.73
2023-06-19T19:39:41.247Z,23.56
2023-06-19T19:42:10.069Z,23.32
2023-06-19T19:44:38.670Z,23.11
2023-06-19T19:47:08.277Z,23.00
2023-06-19T19:49:37.577Z,22.90
2023-06-19T19:52:06.765Z,22.79
2023-06-19T19:54:35.574Z,22.68
2023-06-19T19:57:06.006Z,22.54
2023-06-19T19:59:35.986Z,22.27
2023-06-19T20:02:04.631Z,22.19
2023-06-19T20:04:32.974Z,22.28
2023-06-19T20:07:01.181Z,22.22
2023-06-19T20:09:29.481Z,22.33
2023-06-19T20:12:05.818Z,22.11
2023-06-19T20:14:47.446Z,21.86
2023-06-19T20:17:15.680Z,21.59
2023-06-19T20:19:43.915Z,21.44
2023-06-19T20:22:12.326Z,21.39
2023-06-19T20:24:40.675Z,21.57
2023-06-19T20:27:11.255Z,21.47
2023-06-19T20:29:39.588Z,21.33
2023-06-19T20:32:09.857Z,21.18
2023-06-19T20:34:38.344Z,21.07
2023-06-19T20:37:07.439Z,21.00
2023-06-19T20:39:35.948Z,20.92
2023-06-19T20:42:05.125Z,20.95
2023-06-19T20:44:36.270Z,20.83
2023-06-19T20:47:05.253Z,20.78
2023-06-19T20:49:34.989Z,20.87
2023-06-19T20:52:03.429Z,20.74
2023-06-19T20:54:31.612Z,20.69
2023-06-19T20:56:59.771Z,20.70
2023-06-19T20:59:28.051Z,20.61
2023-06-19T21:02:01.042Z,20.50
2023-06-19T21:04:29.984Z,20.42
2023-06-19T21:06:59.699Z,20.34
2023-06-19T21:09:28.065Z,20.21
2023-06-19T21:11:56.462Z,20.09
2023-06-19T21:14:24.797Z,19.97
2023-06-19T21:16:53.119Z,20.07
2023-06-19T21:19:21.451Z,20.13
2023-06-19T21:21:49.606Z,20.14
2023-06-19T21:24:19.225Z,19.99
2023-06-19T21:26:47.725Z,19.87
2023-06-19T21:29:16.991Z,19.78
2023-06-19T21:31:45.370Z,19.76
2023-06-19T21:34:13.914Z,19.74
2023-06-19T21:36:42.254Z,19.62
2023-06-19T21:39:10.528Z,19.53
2023-06-19T21:41:40.185Z,19.48
2023-06-19T21:44:08.442Z,19.56
2023-06-19T21:46:37.632Z,19.56
2023-06-19T21:49:05.935Z,19.47
2023-06-19T21:51:36.131Z,19.43
2023-06-19T21:54:04.624Z,19.54
2023-06-19T21:56:32.820Z,19.64
2023-06-19T21:59:02.529Z,19.61
2023-06-19T22:01:30.741Z,19.37
2023-06-19T22:03:59.152Z,19.15
2023-06-19T22:06:27.293Z,19.07
2023-06-19T22:09:01.128Z,19.15
2023-06-19T22:11:29.752Z,19.37
2023-06-19T22:13:58.224Z,19.34
2023-06-19T22:16:27.836Z,19.33
2023-06-19T22:18:56.084Z,19.28
2023-06-19T22:21:24.531Z,19.17
2023-06-19T22:23:52.989Z,19.02
2023-06-19T22:26:21.206Z,18.96
2023-06-19T22:28:49.420Z,18.99
2023-06-19T22:31:17.692Z,18.95
2023-06-19T22:33:47.485Z,18.88
2023-06-19T22:36:15.809Z,18.81
2023-06-19T22:38:44.106Z,18.93
2023-06-19T22:41:12.418Z,19.10
2023-06-19T22:43:40.674Z,19.03
2023-06-19T22:46:08.921Z,18.95
2023-06-19T22:48:37.469Z,18.99
2023-06-19T22:51:07.172Z,18.88
2023-06-19T22:53:35.506Z,18.98
2023-06-19T22:56:03.862Z,18.81
2023-06-19T22:58:32.195Z,18.63
2023-06-19T23:01:00.687Z,18.58
2023-06-19T23:03:29.060Z,18.60
2023-06-19T23:05:57.721Z,18.68
2023-06-19T23:08:27.352Z,18.76
2023-06-19T23:10:55.547Z,18.68
2023-06-19T23:13:23.864Z,18.64
2023-06-19T23:15:52.482Z,18.67
2023-06-19T23:18:20.709Z,18.74
2023-06-19T23:20:48.894Z,18.76
2023-06-19T23:23:21.006Z,18.72
2023-06-19T23:25:51.855Z,18.71
2023-06-19T23:28:20.128Z,18.74
2023-06-19T23:30:52.039Z,18.74
2023-06-19T23:33:21.147Z,18.72
2023-06-19T23:35:50.428Z,18.76
2023-06-19T23:38:18.647Z,18.71
2023-06-19T23:40:47.121Z,18.75
2023-06-19T23:43:16.762Z,18.72
2023-06-19T23:45:45.009Z,18.72
2023-06-19T23:48:13.479Z,18.74
2023-06-19T23:50:41.667Z,18.79
2023-06-19T23:53:10.148Z,18.92
2023-06-19T23:55:38.273Z,18.95
2023-06-19T23:58:06.557Z,18.80
